createdAt,value
2017-05-31T00:00:03.632Z,3.92
2017-05-31T00:02:32.014Z,3.60
2017-05-31T00:05:00.322Z,4.10
2017-05-31T00:07:28.665Z,3.50
2017-05-31T00:09:56.972Z,3.88
2017-05-31T00:12:25.348Z,4.14
2017-05-31T00:14:53.658Z,3.92
2017-05-31T00:17:21.266Z,4.80
2017-05-31T00:19:48.824Z,4.12
2017-05-31T00:22:17.164Z,4.66
2017-05-31T00:24:45.475Z,3.90
2017-05-31T00:27:13.842Z,3.90
2017-05-31T00:29:42.209Z,4.32
2017-05-31T00:32:10.545Z,4.18
2017-05-31T00:34:38.919Z,4.16
2017-05-31T00:37:07.252Z,4.26
2017-05-31T00:39:35.559Z,3.88
2017-05-31T00:42:03.896Z,4.10
2017-05-31T00:44:32.203Z,3.82
2017-05-31T00:47:00.540Z,3.64
2017-05-31T00:49:28.844Z,3.96
2017-05-31T00:51:57.192Z,4.30
2017-05-31T00:54:25.508Z,4.42
2017-05-31T00:56:53.850Z,4.58
2017-05-31T00:59:22.161Z,3.60
2017-05-31T01:01:50.523Z,4.04
2017-05-31T01:04:18.832Z,5.20
2017-05-31T01:06:47.188Z,3.92
2017-05-31T01:09:14.733Z,4.44
2017-05-31T01:11:43.068Z,4.74
2017-05-31T01:14:11.414Z,4.20
2017-05-31T01:16:39.723Z,4.06
2017-05-31T01:19:08.061Z,3.88
2017-05-31T01:21:36.377Z,4.34
2017-05-31T01:24:04.720Z,4.00
2017-05-31T01:26:33.060Z,4.66
2017-05-31T01:29:01.398Z,4.20
2017-05-31T01:31:29.704Z,4.62
2017-05-31T01:33:58.044Z,4.48
2017-05-31T01:36:26.353Z,4.48
2017-05-31T01:38:54.706Z,4.46
2017-05-31T01:41:23.027Z,4.36
2017-05-31T01:43:51.369Z,4.58
2017-05-31T01:46:19.687Z,4.20
2017-05-31T01:48:48.028Z,4.38
2017-05-31T01:51:15.587Z,4.32
2017-05-31T01:53:43.932Z,4.60
2017-05-31T01:56:12.240Z,4.22
2017-05-31T01:58:40.589Z,5.34
2017-05-31T02:01:08.136Z,4.06
2017-05-31T02:03:36.476Z,4.34
2017-05-31T02:06:04.788Z,4.56
2017-05-31T02:08:33.125Z,5.10
2017-05-31T02:11:01.457Z,4.46
2017-05-31T02:13:29.804Z,4.90
2017-05-31T02:15:58.119Z,4.76
2017-05-31T02:18:26.462Z,4.20
2017-05-31T02:20:54.812Z,4.32
2017-05-31T02:23:23.166Z,5.28
2017-05-31T02:25:51.485Z,4.80
2017-05-31T02:28:19.826Z,4.76
2017-05-31T02:30:48.144Z,4.98
2017-05-31T02:33:16.491Z,4.82
2017-05-31T02:35:44.064Z,4.56
2017-05-31T02:38:12.415Z,4.42
2017-05-31T02:40:40.735Z,5.44
2017-05-31T02:43:09.079Z,4.96
2017-05-31T02:45:37.396Z,4.10
2017-05-31T02:48:05.741Z,5.28
2017-05-31T02:50:34.118Z,5.00
2017-05-31T02:53:02.474Z,4.86
2017-05-31T02:55:30.788Z,4.42
2017-05-31T02:57:59.128Z,5.08
2017-05-31T03:00:27.444Z,4.46
2017-05-31T03:02:55.819Z,4.90
2017-05-31T03:05:24.178Z,4.46
2017-05-31T03:07:52.490Z,4.78
2017-05-31T03:10:20.145Z,4.38
2017-05-31T03:12:48.471Z,5.12
2017-05-31T03:15:16.817Z,5.52
2017-05-31T03:17:45.148Z,4.90
2017-05-31T03:20:13.490Z,4.96
2017-05-31T03:22:41.816Z,5.26
2017-05-31T03:25:10.166Z,5.04
2017-05-31T03:27:38.484Z,5.08
2017-05-31T03:30:06.824Z,5.06
2017-05-31T03:32:35.144Z,5.30
2017-05-31T03:35:03.492Z,5.06
2017-05-31T03:37:31.873Z,4.88
2017-05-31T03:40:00.216Z,5.48
2017-05-31T03:42:28.531Z,5.30
2017-05-31T03:44:56.872Z,4.90
2017-05-31T03:47:25.187Z,4.72
2017-05-31T03:49:53.534Z,5.16
2017-05-31T03:52:21.853Z,5.34
2017-05-31T03:54:50.206Z,5.92
2017-05-31T03:57:18.529Z,5.26
2017-05-31T03:59:46.114Z,5.32
2017-05-31T04:02:14.433Z,5.12
2017-05-31T04:04:42.773Z,5.02
2017-05-31T04:07:11.092Z,6.14
2017-05-31T04:09:39.445Z,5.28
2017-05-31T04:12:07.841Z,5.18
2017-05-31T04:14:36.185Z,5.12
2017-05-31T04:17:04.505Z,4.50
2017-05-31T04:19:32.859Z,5.08
2017-05-31T04:22:01.183Z,4.48
2017-05-31T04:24:29.525Z,4.20
2017-05-31T04:26:57.081Z,4.80
2017-05-31T04:29:25.427Z,4.72
2017-05-31T04:31:53.745Z,4.24
2017-05-31T04:34:22.143Z,4.76
2017-05-31T04:36:50.468Z,4.74
2017-05-31T04:39:18.812Z,4.42
2017-05-31T04:41:47.129Z,4.40
2017-05-31T04:44:15.624Z,4.04
2017-05-31T04:46:43.940Z,4.46
2017-05-31T04:49:12.278Z,5.16
2017-05-31T04:51:40.595Z,4.10
2017-05-31T04:54:08.939Z,4.36
2017-05-31T04:56:37.251Z,4.14
2017-05-31T04:59:05.588Z,4.20
2017-05-31T05:01:33.907Z,4.50
2017-05-31T05:04:02.224Z,3.96
2017-05-31T05:06:30.569Z,4.30
2017-05-31T05:08:58.911Z,4.34
2017-05-31T05:11:27.257Z,4.26
2017-05-31T05:13:55.574Z,4.08
2017-05-31T05:16:23.144Z,4.50
2017-05-31T05:18:51.452Z,4.30
2017-05-31T05:21:19.796Z,4.22
2017-05-31T05:23:48.109Z,4.84
2017-05-31T05:26:16.453Z,4.76
2017-05-31T05:28:44.005Z,4.24
2017-05-31T05:31:12.345Z,3.86
2017-05-31T05:33:40.665Z,4.42
2017-05-31T05:36:09.008Z,4.10
2017-05-31T05:38:37.334Z,4.70
2017-05-31T05:41:05.678Z,4.26
2017-05-31T05:43:33.997Z,4.44
2017-05-31T05:46:02.336Z,4.40
2017-05-31T05:48:30.664Z,4.28
2017-05-31T05:50:59.008Z,4.50
2017-05-31T05:53:27.329Z,3.88
2017-05-31T05:55:55.672Z,4.38
2017-05-31T05:58:23.997Z,4.28
2017-05-31T06:00:52.337Z,4.42
2017-05-31T06:03:20.652Z,4.34
2017-05-31T06:05:48.993Z,3.88
2017-05-31T06:08:16.553Z,3.84
2017-05-31T06:10:44.893Z,4.24
2017-05-31T06:13:13.204Z,4.10
2017-05-31T06:15:41.546Z,4.12
2017-05-31T06:18:09.097Z,4.10
2017-05-31T06:20:37.449Z,4.60
2017-05-31T06:23:05.759Z,4.34
2017-05-31T06:25:34.103Z,4.38
2017-05-31T06:28:02.413Z,5.12
2017-05-31T06:30:30.748Z,5.54
2017-05-31T06:32:59.062Z,5.34
2017-05-31T06:35:27.405Z,3.98
2017-05-31T06:37:55.719Z,4.00
2017-05-31T06:40:24.056Z,4.22
2017-05-31T06:42:52.371Z,6.66
2017-05-31T06:45:20.712Z,5.28
2017-05-31T06:47:49.036Z,4.28
2017-05-31T06:50:17.383Z,5.58
2017-05-31T06:52:45.722Z,5.82
2017-05-31T06:55:14.063Z,4.34
2017-05-31T06:57:42.396Z,4.40
2017-05-31T07:00:10.763Z,5.04
2017-05-31T07:02:39.087Z,5.68
2017-05-31T07:05:07.403Z,8.72
2017-05-31T07:07:35.739Z,5.78
2017-05-31T07:10:04.057Z,6.22
2017-05-31T07:12:32.398Z,4.98
2017-05-31T07:15:00.708Z,4.60
2017-05-31T07:17:29.077Z,3.98
2017-05-31T07:19:57.384Z,4.20
2017-05-31T07:22:25.739Z,4.40
2017-05-31T07:24:54.057Z,3.86
2017-05-31T07:27:22.421Z,4.18
2017-05-31T07:29:50.729Z,4.68
2017-05-31T07:32:19.069Z,5.50
2017-05-31T07:34:47.394Z,4.60
2017-05-31T07:37:15.801Z,4.12
2017-05-31T07:39:44.117Z,4.16
2017-05-31T07:42:12.557Z,4.06
2017-05-31T07:44:40.872Z,4.00
2017-05-31T07:47:09.216Z,4.96
2017-05-31T07:49:37.527Z,3.70
2017-05-31T07:52:05.884Z,4.16
2017-05-31T07:54:34.216Z,4.20
2017-05-31T07:57:02.557Z,4.26
2017-05-31T07:59:30.888Z,4.24
2017-05-31T08:01:59.226Z,3.90
2017-05-31T08:04:27.538Z,4.12
2017-05-31T08:06:55.882Z,3.64
2017-05-31T08:09:24.192Z,4.24
2017-05-31T08:11:52.540Z,4.04
2017-05-31T08:14:20.923Z,4.38
2017-05-31T08:16:49.267Z,4.14
2017-05-31T08:19:16.815Z,3.58
2017-05-31T08:21:45.154Z,4.00
2017-05-31T08:24:13.528Z,4.00
2017-05-31T08:26:41.885Z,4.32
2017-05-31T08:29:10.198Z,3.56
2017-05-31T08:31:38.536Z,4.40
2017-05-31T08:34:06.845Z,4.94
2017-05-31T08:36:35.184Z,3.98
2017-05-31T08:39:03.499Z,3.54
2017-05-31T08:41:31.840Z,3.70
2017-05-31T08:44:00.152Z,4.00
2017-05-31T08:46:28.493Z,3.76
2017-05-31T08:48:56.803Z,3.70
2017-05-31T08:51:25.150Z,4.18
2017-05-31T08:53:53.469Z,3.52
2017-05-31T08:56:21.809Z,3.72
2017-05-31T08:58:50.143Z,4.04
2017-05-31T09:01:17.711Z,3.62
2017-05-31T09:03:46.069Z,3.56
2017-05-31T09:06:14.387Z,3.40
2017-05-31T09:08:42.727Z,3.60
2017-05-31T09:11:11.049Z,3.70
2017-05-31T09:13:39.394Z,3.30
2017-05-31T09:16:07.712Z,3.70
2017-05-31T09:18:36.045Z,3.86
2017-05-31T09:21:04.357Z,3.70
2017-05-31T09:23:32.695Z,4.16
2017-05-31T09:26:00.241Z,3.90
2017-05-31T09:28:28.587Z,3.92
2017-05-31T09:30:56.908Z,3.78
2017-05-31T09:33:25.281Z,4.02
2017-05-31T09:35:53.594Z,4.00
2017-05-31T09:38:21.960Z,4.06
2017-05-31T09:40:50.267Z,3.66
2017-05-31T09:43:18.683Z,3.84
2017-05-31T09:45:46.999Z,3.56
2017-05-31T09:48:15.349Z,3.12
2017-05-31T09:50:42.888Z,3.40
2017-05-31T09:53:11.225Z,3.56
2017-05-31T09:55:39.535Z,3.54
2017-05-31T09:58:07.876Z,3.72
2017-05-31T10:00:35.415Z,3.30
2017-05-31T10:03:03.772Z,3.04
2017-05-31T10:05:32.080Z,3.58
2017-05-31T10:08:00.433Z,4.14
2017-05-31T10:10:28.746Z,3.38
2017-05-31T10:12:57.080Z,3.26
2017-05-31T10:15:25.396Z,3.38
2017-05-31T10:17:53.778Z,3.50
2017-05-31T10:20:22.092Z,3.50
2017-05-31T10:22:50.407Z,3.42
2017-05-31T10:25:18.740Z,3.38
2017-05-31T10:27:47.052Z,4.18
2017-05-31T10:30:15.386Z,3.18
2017-05-31T10:32:43.692Z,5.00
2017-05-31T10:35:12.029Z,3.68
2017-05-31T10:37:40.343Z,4.02
2017-05-31T10:40:08.680Z,3.64
2017-05-31T10:42:36.987Z,4.86
2017-05-31T10:45:05.321Z,3.52
2017-05-31T10:47:33.645Z,3.72
2017-05-31T10:50:01.984Z,3.72
2017-05-31T10:52:30.304Z,3.84
2017-05-31T10:54:58.636Z,3.84
2017-05-31T10:57:26.956Z,4.50
2017-05-31T10:59:54.549Z,3.42
2017-05-31T11:02:22.865Z,4.00
2017-05-31T11:04:51.208Z,3.44
2017-05-31T11:07:19.520Z,3.54
2017-05-31T11:09:47.861Z,3.38
2017-05-31T11:12:16.184Z,3.30
2017-05-31T11:14:44.529Z,4.00
2017-05-31T11:17:12.844Z,3.38
2017-05-31T11:19:41.183Z,3.98
2017-05-31T11:22:09.499Z,3.60
2017-05-31T11:24:37.841Z,3.72
2017-05-31T11:27:05.393Z,3.96
2017-05-31T11:29:33.740Z,3.88
2017-05-31T11:32:02.065Z,3.54
2017-05-31T11:34:30.423Z,3.42
2017-05-31T11:36:58.740Z,3.90
2017-05-31T11:39:27.085Z,3.80
2017-05-31T11:41:55.443Z,3.56
2017-05-31T11:44:23.780Z,3.52
2017-05-31T11:46:52.100Z,3.60
2017-05-31T11:49:20.440Z,3.74
2017-05-31T11:51:48.756Z,3.32
2017-05-31T11:54:17.091Z,3.62
2017-05-31T11:56:45.435Z,3.28
2017-05-31T11:59:13.781Z,3.70
2017-05-31T12:01:42.092Z,4.12
2017-05-31T12:04:10.445Z,3.94
2017-05-31T12:06:38.761Z,4.08
2017-05-31T12:09:07.805Z,3.82
2017-05-31T12:11:36.117Z,3.76
2017-05-31T12:14:04.460Z,3.88
2017-05-31T12:16:32.772Z,3.62
2017-05-31T12:19:01.127Z,3.38
2017-05-31T12:21:29.435Z,3.60
2017-05-31T12:23:57.744Z,3.82
2017-05-31T12:26:26.105Z,3.62
2017-05-31T12:28:54.459Z,3.48
2017-05-31T12:31:22.941Z,3.42
2017-05-31T12:33:51.268Z,3.72
2017-05-31T12:36:19.609Z,3.30
2017-05-31T12:38:47.929Z,3.98
2017-05-31T12:41:16.270Z,4.00
2017-05-31T12:43:44.586Z,4.10
2017-05-31T12:46:12.922Z,3.44
2017-05-31T12:48:41.231Z,4.10
2017-05-31T12:51:09.569Z,4.10
2017-05-31T12:53:37.887Z,4.04
2017-05-31T12:56:06.226Z,4.00
2017-05-31T12:58:34.545Z,3.62
2017-05-31T13:01:02.885Z,3.78
2017-05-31T13:03:31.258Z,3.86
2017-05-31T13:05:59.596Z,3.78
2017-05-31T13:08:28.058Z,3.82
2017-05-31T13:10:56.403Z,3.72
2017-05-31T13:13:24.726Z,3.54
2017-05-31T13:15:53.088Z,3.82
2017-05-31T13:18:21.399Z,3.86
2017-05-31T13:20:49.718Z,3.90
2017-05-31T13:23:18.059Z,3.90
2017-05-31T13:25:45.623Z,4.08
2017-05-31T13:28:13.970Z,4.04
2017-05-31T13:30:42.280Z,4.24
2017-05-31T13:33:10.641Z,4.06
2017-05-31T13:35:38.975Z,4.18
2017-05-31T13:38:07.317Z,5.04
2017-05-31T13:40:35.628Z,3.64
2017-05-31T13:43:03.971Z,4.46
2017-05-31T13:45:32.287Z,4.02
2017-05-31T13:48:00.624Z,3.90
2017-05-31T13:50:28.940Z,4.50
2017-05-31T13:52:57.280Z,3.98
2017-05-31T13:55:25.603Z,3.98
2017-05-31T13:57:53.194Z,4.08
2017-05-31T14:00:21.501Z,3.30
2017-05-31T14:02:49.077Z,3.92
2017-05-31T14:05:17.392Z,3.94
2017-05-31T14:07:45.737Z,3.82
2017-05-31T14:10:14.044Z,4.12
2017-05-31T14:12:42.382Z,4.30
2017-05-31T14:15:10.695Z,4.10
2017-05-31T14:17:39.032Z,3.92
2017-05-31T14:20:07.349Z,3.86
2017-05-31T14:22:35.687Z,3.90
2017-05-31T14:25:04.011Z,4.10
2017-05-31T14:27:32.413Z,4.02
2017-05-31T14:30:00.722Z,4.56
2017-05-31T14:32:29.070Z,3.60
2017-05-31T14:34:57.391Z,4.10
2017-05-31T14:37:25.726Z,3.68
2017-05-31T14:39:54.035Z,3.74
2017-05-31T14:42:22.379Z,3.86
2017-05-31T14:44:50.816Z,4.58
2017-05-31T14:47:19.153Z,3.74
2017-05-31T14:49:47.469Z,4.16
2017-05-31T14:52:15.039Z,3.94
2017-05-31T14:54:43.358Z,3.48
2017-05-31T14:57:11.696Z,3.98
2017-05-31T14:59:40.012Z,3.30
2017-05-31T15:02:08.354Z,3.72
2017-05-31T15:04:36.669Z,4.66
2017-05-31T15:07:05.008Z,4.08
2017-05-31T15:09:33.332Z,3.98
2017-05-31T15:12:01.664Z,4.04
2017-05-31T15:14:29.979Z,3.74
2017-05-31T15:16:57.524Z,3.86
2017-05-31T15:19:25.862Z,4.26
2017-05-31T15:21:54.181Z,3.96
2017-05-31T15:24:22.529Z,3.58
2017-05-31T15:26:50.849Z,4.40
2017-05-31T15:29:19.197Z,3.70
2017-05-31T15:31:47.514Z,3.90
2017-05-31T15:34:15.851Z,3.98
2017-05-31T15:36:44.172Z,3.84
2017-05-31T15:39:12.517Z,3.76
2017-05-31T15:41:40.912Z,3.74
2017-05-31T15:44:09.278Z,3.88
2017-05-31T15:46:36.821Z,4.64
2017-05-31T15:49:05.343Z,4.46
2017-05-31T15:51:33.656Z,3.66
2017-05-31T15:54:01.993Z,4.00
2017-05-31T15:56:30.303Z,4.14
2017-05-31T15:58:57.901Z,4.54
2017-05-31T16:01:26.213Z,4.28
2017-05-31T16:03:54.549Z,3.84
2017-05-31T16:06:22.871Z,4.98
2017-05-31T16:08:51.208Z,4.62
2017-05-31T16:11:19.528Z,4.52
2017-05-31T16:13:47.871Z,4.22
2017-05-31T16:16:15.421Z,5.40
2017-05-31T16:18:43.794Z,3.84
2017-05-31T16:21:11.459Z,3.80
2017-05-31T16:23:39.997Z,4.20
2017-05-31T16:26:08.373Z,3.92
2017-05-31T16:28:35.950Z,4.62
2017-05-31T16:31:04.271Z,4.18
2017-05-31T16:33:32.626Z,3.78
2017-05-31T16:36:00.997Z,3.80
2017-05-31T16:38:29.450Z,3.68
2017-05-31T16:40:57.767Z,3.84
2017-05-31T16:43:26.185Z,3.88
2017-05-31T16:45:54.579Z,3.90
2017-05-31T16:48:22.152Z,3.56
2017-05-31T16:50:50.714Z,3.90
2017-05-31T16:53:19.064Z,3.98
2017-05-31T16:55:47.376Z,4.20
2017-05-31T16:58:15.716Z,3.98
2017-05-31T17:00:44.028Z,3.78
2017-05-31T17:03:12.426Z,4.24
2017-05-31T17:05:40.026Z,4.60
2017-05-31T17:08:08.366Z,4.20
2017-05-31T17:10:36.689Z,4.34
2017-05-31T17:13:05.026Z,4.16
2017-05-31T17:15:32.602Z,4.14
2017-05-31T17:18:00.916Z,4.74
2017-05-31T17:20:29.252Z,3.76
2017-05-31T17:22:57.580Z,3.80
2017-05-31T17:25:25.919Z,3.76
2017-05-31T17:27:53.488Z,3.90
2017-05-31T17:30:21.830Z,3.86
2017-05-31T17:32:50.160Z,3.82
2017-05-31T17:35:18.501Z,3.78
2017-05-31T17:37:46.816Z,3.04
2017-05-31T17:40:15.160Z,3.98
2017-05-31T17:42:43.512Z,3.78
2017-05-31T17:45:11.848Z,3.88
2017-05-31T17:47:40.169Z,3.94
2017-05-31T17:50:07.740Z,3.52
2017-05-31T17:52:35.286Z,3.76
2017-05-31T17:55:03.631Z,3.60
2017-05-31T17:57:31.948Z,3.92
2017-05-31T18:00:00.296Z,3.58
2017-05-31T18:02:28.637Z,4.36
2017-05-31T18:04:56.995Z,3.66
2017-05-31T18:07:25.312Z,3.50
2017-05-31T18:09:53.656Z,3.68
2017-05-31T18:12:21.960Z,5.04
2017-05-31T18:14:50.295Z,3.70
2017-05-31T18:17:18.607Z,4.30
2017-05-31T18:19:46.950Z,4.26
2017-05-31T18:22:15.265Z,4.42
2017-05-31T18:24:43.616Z,3.90
2017-05-31T18:27:12.907Z,3.28
2017-05-31T18:29:41.251Z,4.32
2017-05-31T18:32:08.855Z,3.50
2017-05-31T18:34:37.199Z,3.44
2017-05-31T18:37:05.512Z,3.50
2017-05-31T18:39:33.850Z,3.50
2017-05-31T18:42:02.160Z,3.36
2017-05-31T18:44:30.499Z,3.46
2017-05-31T18:46:58.823Z,3.50
2017-05-31T18:49:27.165Z,3.60
2017-05-31T18:51:55.490Z,3.38
2017-05-31T18:54:23.868Z,3.62
2017-05-31T18:56:52.187Z,3.68
2017-05-31T18:59:20.529Z,4.20
2017-05-31T19:01:48.846Z,3.80
2017-05-31T19:04:17.187Z,4.16
2017-05-31T19:06:45.495Z,4.10
2017-05-31T19:09:13.856Z,3.60
2017-05-31T19:11:42.199Z,3.58
2017-05-31T19:14:10.530Z,4.10
2017-05-31T19:16:38.879Z,3.52
2017-05-31T19:19:07.269Z,3.82
2017-05-31T19:21:35.607Z,3.90
2017-05-31T19:24:03.924Z,3.78
2017-05-31T19:26:32.265Z,3.44
2017-05-31T19:29:00.602Z,4.22
2017-05-31T19:31:28.937Z,3.58
2017-05-31T19:33:57.245Z,3.98
2017-05-31T19:36:25.588Z,4.08
2017-05-31T19:38:53.898Z,3.90
2017-05-31T19:41:22.232Z,4.86
2017-05-31T19:43:50.540Z,4.20
2017-05-31T19:46:18.877Z,3.82
2017-05-31T19:48:47.192Z,4.04
2017-05-31T19:51:15.594Z,4.30
2017-05-31T19:53:43.908Z,4.60
2017-05-31T19:56:12.263Z,4.10
2017-05-31T19:58:40.578Z,4.18
2017-05-31T20:01:08.924Z,4.52
2017-05-31T20:03:37.236Z,4.42
2017-05-31T20:06:05.596Z,4.60
2017-05-31T20:08:33.927Z,4.16
2017-05-31T20:11:02.257Z,4.70
2017-05-31T20:13:30.601Z,4.46
2017-05-31T20:15:58.979Z,4.78
2017-05-31T20:18:27.374Z,4.88
2017-05-31T20:20:55.735Z,4.70
2017-05-31T20:23:24.119Z,4.50
2017-05-31T20:25:52.452Z,5.50
2017-05-31T20:28:20.769Z,4.64
2017-05-31T20:30:49.112Z,5.60
2017-05-31T20:33:17.427Z,4.86
2017-05-31T20:35:45.766Z,5.36
2017-05-31T20:38:14.082Z,4.66
2017-05-31T20:40:42.430Z,4.80
2017-05-31T20:43:10.811Z,4.82
2017-05-31T20:45:39.150Z,5.18
2017-05-31T20:48:07.493Z,4.58
2017-05-31T20:50:35.837Z,5.00
2017-05-31T20:53:04.158Z,5.00
2017-05-31T20:55:32.517Z,4.72
2017-05-31T20:58:00.832Z,5.30
2017-05-31T21:00:29.175Z,4.86
2017-05-31T21:02:57.483Z,5.04
2017-05-31T21:05:25.825Z,5.16
2017-05-31T21:07:54.190Z,5.00
2017-05-31T21:10:21.739Z,4.92
2017-05-31T21:12:50.097Z,4.58
2017-05-31T21:15:18.417Z,5.32
2017-05-31T21:17:46.805Z,5.06
2017-05-31T21:20:15.116Z,5.00
2017-05-31T21:22:43.457Z,5.02
2017-05-31T21:25:11.767Z,4.50
2017-05-31T21:27:40.113Z,5.22
2017-05-31T21:30:08.427Z,4.98
2017-05-31T21:32:36.815Z,5.74
2017-05-31T21:35:05.133Z,5.58
2017-05-31T21:37:33.469Z,5.24
2017-05-31T21:40:01.776Z,5.00
2017-05-31T21:42:30.117Z,5.12
2017-05-31T21:44:58.664Z,5.16
2017-05-31T21:47:26.240Z,5.02
2017-05-31T21:49:54.556Z,5.20
2017-05-31T21:52:22.897Z,5.48
2017-05-31T21:54:51.214Z,5.68
2017-05-31T21:57:19.559Z,5.40
2017-05-31T21:59:47.877Z,5.48
2017-05-31T22:02:16.224Z,5.20
2017-05-31T22:04:44.540Z,5.40
2017-05-31T22:07:12.942Z,5.30
2017-05-31T22:09:41.263Z,5.30
2017-05-31T22:12:09.597Z,5.14
2017-05-31T22:14:37.919Z,5.58
2017-05-31T22:17:06.353Z,5.10
2017-05-31T22:19:34.665Z,6.10
2017-05-31T22:22:02.242Z,6.02
2017-05-31T22:24:30.549Z,5.72
2017-05-31T22:26:58.881Z,5.48
2017-05-31T22:29:27.192Z,5.66
2017-05-31T22:31:55.595Z,5.48
2017-05-31T22:34:23.907Z,5.60
2017-05-31T22:36:52.248Z,5.20
2017-05-31T22:39:20.555Z,5.66
2017-05-31T22:41:48.888Z,5.92
2017-05-31T22:44:17.204Z,5.22
2017-05-31T22:46:45.570Z,6.08
2017-05-31T22:49:13.875Z,5.88
2017-05-31T22:51:42.225Z,5.58
2017-05-31T22:54:10.560Z,5.84
2017-05-31T22:56:38.897Z,6.00
2017-05-31T22:59:07.204Z,5.78
2017-05-31T23:01:35.541Z,5.40
2017-05-31T23:04:03.842Z,5.66
2017-05-31T23:06:32.214Z,5.70
2017-05-31T23:09:00.524Z,5.92
2017-05-31T23:11:28.833Z,6.32
2017-05-31T23:13:57.172Z,5.34
2017-05-31T23:16:25.475Z,5.82
2017-05-31T23:18:53.815Z,6.18
2017-05-31T23:21:21.355Z,6.22
2017-05-31T23:23:49.712Z,6.62
2017-05-31T23:26:18.020Z,5.50
2017-05-31T23:28:46.364Z,6.74
2017-05-31T23:31:14.669Z,5.88
2017-05-31T23:33:43.020Z,6.82
2017-05-31T23:36:11.332Z,6.02
2017-05-31T23:38:39.669Z,5.86
2017-05-31T23:41:07.980Z,6.54
2017-05-31T23:43:36.325Z,5.94
2017-05-31T23:46:04.629Z,5.62
2017-05-31T23:48:32.981Z,6.06
2017-05-31T23:51:01.310Z,6.38
2017-05-31T23:53:29.647Z,6.22
2017-05-31T23:55:57.956Z,6.44
2017-05-31T23:58:26.289Z,6.56
